Time;durP1;ratioP1;P1;durP2;ratioP2;P2;SDS_P1;SDS_P2;PMS_P1;PMS_P2;Temp;Humidity;BMP_temperature;BMP_pressure;BME280_temperature;BME280_humidity;BME280_pressure;Samples;Min_cycle;Max_cycle;Signal;HPM_P1;HPM_P2
2023/09/01 00:01:29;;;;;;;6.95;4.40;;;15.10;99.90;;;;;;5074528;28;20215;-71
2023/09/01 00:04:57;;;;;;;6.35;4.43;;;15.00;99.90;;;;;;5092860;28;20279;-72
2023/09/01 00:07:47;;;;;;;5.53;4.28;;;15.00;99.90;;;;;;5099566;28;20243;-73
2023/09/01 00:10:39;;;;;;;6.95;4.55;;;15.00;99.90;;;;;;5089342;28;20243;-73
2023/09/01 00:13:28;;;;;;;4.72;4.22;;;15.00;99.90;;;;;;5098553;28;20215;-71
2023/09/01 00:16:17;;;;;;;6.75;4.03;;;15.00;99.90;;;;;;5097549;28;20219;-71
2023/09/01 00:19:07;;;;;;;10.57;4.68;;;15.10;99.90;;;;;;5088900;28;20218;-71
2023/09/01 00:21:56;;;;;;;7.55;4.22;;;15.00;99.90;;;;;;5100646;28;21008;-72
2023/09/01 00:24:47;;;;;;;5.35;4.10;;;15.00;99.90;;;;;;5097956;28;20219;-72
2023/09/01 00:27:36;;;;;;;6.85;4.18;;;14.90;99.90;;;;;;5101027;28;20234;-71
2023/09/01 00:30:29;;;;;;;4.32;3.92;;;14.90;99.90;;;;;;5091395;28;20215;-72
2023/09/01 00:33:18;;;;;;;4.57;3.65;;;14.90;99.90;;;;;;5078320;28;20231;-73
2023/09/01 00:36:07;;;;;;;4.97;3.80;;;14.90;99.90;;;;;;5083963;28;20241;-72
2023/09/01 00:38:57;;;;;;;5.70;3.83;;;14.80;99.90;;;;;;5096967;28;20258;-70
2023/09/01 00:41:47;;;;;;;7.38;4.30;;;14.80;99.90;;;;;;5095342;28;20226;-69
2023/09/01 00:44:36;;;;;;;5.82;4.18;;;14.80;99.90;;;;;;5072397;28;20232;-68
2023/09/01 00:47:25;;;;;;;7.68;4.53;;;14.80;99.90;;;;;;5092964;28;20537;-71
2023/09/01 00:50:14;;;;;;;7.50;4.60;;;14.80;99.90;;;;;;5102352;28;20234;-71
2023/09/01 00:53:05;;;;;;;5.40;4.68;;;14.70;99.90;;;;;;5095547;28;20222;-70
2023/09/01 00:55:57;;;;;;;5.38;4.60;;;14.70;99.90;;;;;;5087544;28;20756;-69
2023/09/01 00:58:48;;;;;;;5.47;4.35;;;14.70;99.90;;;;;;5078688;28;20290;-69
2023/09/01 01:01:37;;;;;;;5.75;4.72;;;14.70;99.90;;;;;;5079631;28;20231;-69
2023/09/01 01:04:27;;;;;;;7.30;5.03;;;14.60;99.90;;;;;;5096816;28;20211;-71
2023/09/01 01:07:23;;;;;;;7.20;4.75;;;14.60;99.90;;;;;;5080885;28;20597;-70
2023/09/01 01:10:19;;;;;;;9.20;4.80;;;14.60;99.90;;;;;;5083989;28;20315;-70
2023/09/01 01:13:11;;;;;;;5.22;4.55;;;14.60;99.90;;;;;;5073044;28;20824;-71
2023/09/01 01:16:04;;;;;;;6.85;5.18;;;14.60;99.90;;;;;;5083947;28;20302;-70
2023/09/01 01:18:55;;;;;;;6.90;5.00;;;14.50;99.90;;;;;;5087530;28;20231;-71
2023/09/01 01:21:47;;;;;;;7.72;5.13;;;14.50;99.90;;;;;;5071026;28;20322;-71
2023/09/01 01:24:37;;;;;;;8.18;4.82;;;14.50;99.90;;;;;;5093889;28;20218;-72
2023/09/01 01:27:26;;;;;;;7.95;5.10;;;14.40;99.90;;;;;;5090281;28;20224;-71
2023/09/01 01:30:16;;;;;;;12.30;5.60;;;14.40;99.90;;;;;;5073599;28;20219;-71
2023/09/01 01:33:11;;;;;;;9.25;5.50;;;14.40;99.90;;;;;;5091009;28;20231;-71
2023/09/01 01:36:08;;;;;;;8.20;5.25;;;14.40;99.90;;;;;;5088670;28;20222;-71
2023/09/01 01:39:04;;;;;;;7.06;4.92;;;14.30;99.90;;;;;;5077365;28;1189919;-73
2023/09/01 01:42:00;;;;;;;9.07;5.15;;;14.30;99.90;;;;;;5089336;28;20764;-71
2023/09/01 01:44:51;;;;;;;6.45;4.68;;;14.40;99.90;;;;;;5091900;28;20360;-70
2023/09/01 01:47:41;;;;;;;8.70;5.05;;;14.30;99.90;;;;;;5097411;28;20676;-70
2023/09/01 01:50:32;;;;;;;5.20;4.55;;;14.30;99.90;;;;;;5087468;28;20219;-69
2023/09/01 01:53:22;;;;;;;5.60;4.45;;;14.30;99.90;;;;;;5103434;28;20230;-72
2023/09/01 01:56:12;;;;;;;6.68;4.68;;;14.30;99.90;;;;;;5079638;28;20215;-71
2023/09/01 01:59:04;;;;;;;7.68;4.90;;;14.20;99.90;;;;;;5056794;28;20224;-69
2023/09/01 02:01:53;;;;;;;5.85;4.50;;;14.20;99.90;;;;;;5088107;28;20234;-70
2023/09/01 02:04:43;;;;;;;8.30;4.82;;;14.20;99.90;;;;;;5081459;28;20229;-70
2023/09/01 02:07:32;;;;;;;5.30;4.63;;;14.10;99.90;;;;;;5083137;28;20710;-71
2023/09/01 02:10:21;;;;;;;6.32;4.78;;;14.10;99.90;;;;;;5099129;28;20538;-72
2023/09/01 02:13:10;;;;;;;7.20;4.57;;;14.10;99.90;;;;;;5086356;28;20257;-71
2023/09/01 02:16:01;;;;;;;9.07;4.65;;;14.10;99.90;;;;;;5102963;28;20238;-72
2023/09/01 02:18:51;;;;;;;6.95;5.03;;;14.10;99.90;;;;;;5085609;28;20230;-71
2023/09/01 02:21:40;;;;;;;4.80;4.32;;;14.10;99.90;;;;;;5079191;28;20219;-73
2023/09/01 02:24:29;;;;;;;6.00;4.65;;;14.10;99.90;;;;;;5061503;28;20713;-72
2023/09/01 02:27:18;;;;;;;6.07;4.80;;;14.00;99.90;;;;;;5055042;28;20305;-73
2023/09/01 02:30:09;;;;;;;5.78;4.43;;;14.00;99.90;;;;;;5051175;28;20222;-73
2023/09/01 02:32:59;;;;;;;6.18;4.38;;;14.00;99.90;;;;;;5050530;28;20314;-71
2023/09/01 02:35:49;;;;;;;6.72;4.72;;;14.00;99.90;;;;;;5068285;28;20254;-68
2023/09/01 02:38:38;;;;;;;7.45;5.00;;;14.10;99.90;;;;;;5079717;28;20235;-70
2023/09/01 02:41:28;;;;;;;6.28;4.40;;;14.10;99.90;;;;;;5073921;28;20231;-70
2023/09/01 02:44:17;;;;;;;5.75;4.50;;;14.00;99.90;;;;;;5065188;28;20235;-70
2023/09/01 02:47:06;;;;;;;5.20;4.05;;;14.10;99.90;;;;;;5049375;28;20741;-71
2023/09/01 02:49:58;;;;;;;5.32;4.22;;;14.00;99.90;;;;;;5069982;28;20228;-71
2023/09/01 02:52:47;;;;;;;5.43;4.38;;;14.00;99.90;;;;;;5064539;28;20239;-72
2023/09/01 02:55:36;;;;;;;6.47;4.40;;;14.00;99.90;;;;;;5061608;28;20216;-72
2023/09/01 02:58:25;;;;;;;5.35;4.28;;;14.00;99.90;;;;;;5072366;28;20230;-72
2023/09/01 03:01:14;;;;;;;8.00;4.32;;;14.00;99.90;;;;;;5067589;28;20227;-72
2023/09/01 03:04:06;;;;;;;7.65;4.65;;;14.00;99.90;;;;;;5048791;28;20227;-71
2023/09/01 03:06:57;;;;;;;7.65;4.32;;;14.10;99.90;;;;;;5056755;28;20911;-71
2023/09/01 03:09:47;;;;;;;7.18;4.13;;;14.10;99.90;;;;;;5056623;28;20339;-70
2023/09/01 03:12:37;;;;;;;5.15;4.28;;;14.10;99.90;;;;;;5060511;28;20230;-72
2023/09/01 03:15:26;;;;;;;5.72;3.60;;;14.10;99.90;;;;;;5063483;28;20935;-72
2023/09/01 03:18:16;;;;;;;5.30;3.83;;;14.10;99.90;;;;;;5076617;28;20333;-72
2023/09/01 03:21:12;;;;;;;5.10;3.80;;;14.10;99.90;;;;;;5062835;28;20265;-71
2023/09/01 03:24:03;;;;;;;5.68;3.90;;;14.10;99.90;;;;;;5059645;28;20866;-70
2023/09/01 03:26:52;;;;;;;5.43;4.28;;;14.10;99.90;;;;;;5055468;28;20231;-70
2023/09/01 03:29:42;;;;;;;7.32;3.90;;;14.10;99.90;;;;;;5068689;28;20220;-69
2023/09/01 03:32:33;;;;;;;6.90;4.30;;;14.10;99.90;;;;;;5058512;28;20257;-70
2023/09/01 03:35:22;;;;;;;6.00;3.63;;;14.10;99.90;;;;;;5065472;28;20254;-69
2023/09/01 03:38:11;;;;;;;5.90;4.28;;;14.10;99.90;;;;;;5042195;28;20219;-70
2023/09/01 03:41:04;;;;;;;3.80;3.45;;;14.10;99.90;;;;;;5060910;28;20227;-71
2023/09/01 03:43:53;;;;;;;6.55;3.75;;;14.10;99.90;;;;;;5048371;28;20303;-71
2023/09/01 03:46:42;;;;;;;5.82;3.97;;;14.10;99.90;;;;;;5051859;28;20306;-71
2023/09/01 03:49:31;;;;;;;6.70;4.20;;;14.10;99.90;;;;;;5036947;28;20303;-72
2023/09/01 03:52:20;;;;;;;5.80;3.75;;;14.10;99.90;;;;;;5040120;28;20219;-72
2023/09/01 03:55:11;;;;;;;7.40;3.63;;;14.10;99.90;;;;;;5046161;28;20220;-70
2023/09/01 03:58:02;;;;;;;8.35;4.22;;;14.20;99.90;;;;;;5036029;28;20592;-71
2023/09/01 04:00:51;;;;;;;6.22;4.20;;;14.20;99.90;;;;;;5056904;28;20917;-71
2023/09/01 04:03:41;;;;;;;5.72;3.53;;;14.10;99.90;;;;;;5047658;28;20307;-71
2023/09/01 04:06:30;;;;;;;5.03;3.92;;;14.10;99.90;;;;;;5050068;28;20229;-71
2023/09/01 04:09:20;;;;;;;5.10;3.97;;;14.20;99.90;;;;;;5067566;28;20722;-69
2023/09/01 04:12:09;;;;;;;5.32;3.83;;;14.20;99.90;;;;;;5042716;28;20283;-69
2023/09/01 04:14:59;;;;;;;7.20;3.97;;;14.30;99.90;;;;;;5061291;28;20365;-70
2023/09/01 04:17:49;;;;;;;7.53;3.92;;;14.30;99.90;;;;;;5063907;28;20229;-71
2023/09/01 04:20:39;;;;;;;6.63;3.75;;;14.40;99.90;;;;;;5050982;28;20228;-73
2023/09/01 04:23:27;;;;;;;5.13;4.03;;;14.40;99.90;;;;;;5057944;28;20267;-74
2023/09/01 04:26:17;;;;;;;5.60;4.30;;;14.40;99.90;;;;;;5063293;28;20258;-69
2023/09/01 04:29:06;;;;;;;5.55;4.20;;;14.40;99.90;;;;;;5079609;28;20250;-73
2023/09/01 04:31:58;;;;;;;6.47;4.25;;;14.40;99.90;;;;;;5065996;28;20602;-71
2023/09/01 04:34:47;;;;;;;7.88;4.43;;;14.60;99.90;;;;;;5065652;28;20275;-73
2023/09/01 04:37:36;;;;;;;6.13;4.60;;;14.70;99.90;;;;;;5053936;28;20223;-73
2023/09/01 04:40:26;;;;;;;6.75;4.90;;;14.60;99.90;;;;;;5062659;28;20224;-72
2023/09/01 04:43:15;;;;;;;5.97;3.90;;;14.80;99.90;;;;;;5062158;28;20247;-70
2023/09/01 04:46:04;;;;;;;8.50;3.97;;;14.80;99.90;;;;;;5067209;28;20250;-71
2023/09/01 04:48:55;;;;;;;5.75;3.97;;;14.80;99.90;;;;;;5057210;28;20223;-70
2023/09/01 04:51:44;;;;;;;4.32;3.85;;;14.90;99.90;;;;;;5064785;28;20600;-69
2023/09/01 04:54:33;;;;;;;5.13;3.53;;;14.90;99.90;;;;;;5070992;28;20231;-70
2023/09/01 04:57:23;;;;;;;6.10;3.30;;;14.90;99.90;;;;;;5052970;28;20219;-71
2023/09/01 05:00:19;;;;;;;7.57;3.80;;;15.00;99.90;;;;;;5076618;28;20723;-72
2023/09/01 05:03:08;;;;;;;5.03;3.85;;;15.00;99.90;;;;;;5054787;28;20237;-73
2023/09/01 05:05:59;;;;;;;5.30;3.80;;;15.00;99.90;;;;;;5064239;28;20230;-72
2023/09/01 05:08:48;;;;;;;4.70;3.95;;;15.00;99.90;;;;;;5073196;28;20680;-72
2023/09/01 05:11:37;;;;;;;8.30;4.25;;;15.00;99.90;;;;;;5058098;28;20216;-72
2023/09/01 05:14:27;;;;;;;4.50;3.90;;;15.20;99.90;;;;;;5075503;28;20233;-72
2023/09/01 05:17:16;;;;;;;6.60;3.67;;;15.50;99.90;;;;;;5059293;28;20226;-72
2023/09/01 05:20:07;;;;;;;8.48;3.40;;;15.50;99.90;;;;;;5075884;28;20222;-72
2023/09/01 05:22:58;;;;;;;4.13;3.20;;;15.40;99.90;;;;;;5057378;28;20225;-74
2023/09/01 05:25:52;;;;;;;4.93;3.33;;;15.40;99.90;;;;;;5044682;28;20225;-73
2023/09/01 05:28:42;;;;;;;5.20;3.60;;;15.50;99.90;;;;;;5042906;28;20288;-72
2023/09/01 05:31:31;;;;;;;5.40;3.63;;;15.50;99.90;;;;;;5060501;28;20273;-73
2023/09/01 05:34:22;;;;;;;4.45;3.40;;;15.70;99.90;;;;;;5025481;28;20228;-73
2023/09/01 05:37:12;;;;;;;5.28;3.50;;;15.80;99.90;;;;;;5026797;28;20239;-73
2023/09/01 05:40:04;;;;;;;3.42;2.80;;;16.20;99.90;;;;;;5039803;28;20315;-73
2023/09/01 05:42:53;;;;;;;3.90;3.10;;;16.90;99.90;;;;;;5036834;28;20374;-73
2023/09/01 05:45:42;;;;;;;4.88;2.90;;;16.90;99.90;;;;;;5047031;28;20232;-73
2023/09/01 05:48:31;;;;;;;4.55;3.00;;;16.80;99.90;;;;;;5042043;28;20224;-74
2023/09/01 05:51:20;;;;;;;6.85;3.15;;;16.60;99.90;;;;;;5042847;28;20742;-74
2023/09/01 05:54:09;;;;;;;6.35;3.03;;;16.60;99.90;;;;;;5033024;28;20221;-72
2023/09/01 05:57:01;;;;;;;3.70;2.90;;;16.60;99.90;;;;;;5040403;28;20304;-72
2023/09/01 05:59:51;;;;;;;4.80;2.60;;;16.60;99.90;;;;;;5033852;28;20307;-72
2023/09/01 06:02:40;;;;;;;3.38;2.53;;;16.70;99.90;;;;;;5058308;28;20265;-73
2023/09/01 06:05:30;;;;;;;7.35;2.40;;;17.40;99.90;;;;;;5046601;28;20216;-73
2023/09/01 06:08:20;;;;;;;6.30;2.38;;;18.20;99.90;;;;;;5034899;28;20232;-73
2023/09/01 06:11:09;;;;;;;4.75;2.33;;;18.50;99.90;;;;;;5057142;28;20220;-73
2023/09/01 06:14:01;;;;;;;4.25;2.78;;;18.40;99.90;;;;;;5038215;28;20753;-73
2023/09/01 06:16:51;;;;;;;4.65;2.58;;;18.10;99.90;;;;;;5037755;28;20224;-73
2023/09/01 06:19:40;;;;;;;3.95;2.53;;;17.70;99.90;;;;;;5036009;28;20327;-73
2023/09/01 06:22:29;;;;;;;2.67;2.10;;;17.60;99.90;;;;;;5053724;28;20347;-72
2023/09/01 06:25:18;;;;;;;3.13;2.40;;;17.50;99.90;;;;;;5061746;28;20320;-74
2023/09/01 06:28:07;;;;;;;3.42;2.20;;;17.70;99.90;;;;;;5058860;28;20223;-73
2023/09/01 06:30:57;;;;;;;3.85;2.30;;;17.60;99.90;;;;;;5036224;28;20216;-74
2023/09/01 06:33:47;;;;;;;4.82;2.22;;;17.60;99.90;;;;;;5050269;28;20319;-74
2023/09/01 06:36:36;;;;;;;3.45;2.30;;;17.30;99.90;;;;;;5037835;28;20787;-73
2023/09/01 06:39:25;;;;;;;2.85;2.53;;;17.30;99.90;;;;;;5047728;28;20362;-73
2023/09/01 06:42:14;;;;;;;5.43;2.00;;;17.40;99.90;;;;;;5052181;28;20756;-73
2023/09/01 06:45:04;;;;;;;2.67;1.75;;;17.40;99.90;;;;;;5081178;28;20243;-73
2023/09/01 06:47:56;;;;;;;3.75;1.98;;;17.50;99.90;;;;;;5073412;28;20227;-71
2023/09/01 06:50:48;;;;;;;5.07;1.90;;;17.60;99.90;;;;;;5071077;28;20231;-70
2023/09/01 06:53:37;;;;;;;4.82;1.95;;;17.40;99.90;;;;;;5078139;28;20463;-70
2023/09/01 06:56:26;;;;;;;2.78;1.92;;;17.50;99.90;;;;;;5076709;28;20228;-70
2023/09/01 06:59:15;;;;;;;3.15;1.77;;;17.80;99.90;;;;;;5057190;28;20314;-71
2023/09/01 07:02:05;;;;;;;3.92;1.92;;;18.00;99.90;;;;;;5055623;28;20231;-71
2023/09/01 07:04:55;;;;;;;4.40;1.90;;;18.10;99.90;;;;;;5093008;28;20955;-70
2023/09/01 07:07:45;;;;;;;3.50;1.98;;;18.30;99.90;;;;;;5093337;28;20230;-73
2023/09/01 07:10:34;;;;;;;4.05;2.00;;;18.50;99.90;;;;;;5085122;28;20700;-73
2023/09/01 07:13:23;;;;;;;4.35;1.85;;;18.60;99.90;;;;;;5100146;28;20313;-74
2023/09/01 07:16:12;;;;;;;3.95;2.20;;;18.60;99.90;;;;;;5097955;28;20219;-72
2023/09/01 07:19:02;;;;;;;6.00;2.10;;;18.80;99.90;;;;;;5077375;28;20403;-72
2023/09/01 07:21:53;;;;;;;2.42;1.55;;;18.80;99.90;;;;;;5080927;28;20225;-73
2023/09/01 07:24:41;;;;;;;3.20;2.10;;;18.60;99.90;;;;;;5097034;28;20692;-73
2023/09/01 07:27:34;;;;;;;3.63;1.98;;;18.80;99.90;;;;;;5097679;28;20222;-73
2023/09/01 07:30:23;;;;;;;4.03;1.80;;;18.90;99.90;;;;;;5088396;28;20254;-74
2023/09/01 07:33:13;;;;;;;6.18;2.10;;;18.90;99.90;;;;;;5092644;28;20494;-74
2023/09/01 07:36:02;;;;;;;3.40;1.90;;;19.10;99.90;;;;;;5090683;28;20230;-73
2023/09/01 07:38:52;;;;;;;3.63;1.80;;;19.10;99.90;;;;;;5090619;28;20275;-73
2023/09/01 07:41:41;;;;;;;3.28;1.77;;;19.20;99.90;;;;;;5080963;28;20230;-73
2023/09/01 07:44:30;;;;;;;4.05;1.63;;;19.20;99.90;;;;;;5065858;28;20306;-73
2023/09/01 07:47:19;;;;;;;4.55;1.98;;;19.10;99.90;;;;;;5074467;28;20219;-76
2023/09/01 07:50:09;;;;;;;2.50;1.80;;;19.30;99.90;;;;;;5074616;28;20243;-73
2023/09/01 07:52:59;;;;;;;3.20;1.70;;;19.10;99.90;;;;;;5076647;28;20235;-73
2023/09/01 07:55:50;;;;;;;2.78;1.90;;;19.40;99.90;;;;;;5068932;28;20243;-73
2023/09/01 07:58:39;;;;;;;2.17;1.70;;;19.70;99.90;;;;;;5068291;28;20314;-72
2023/09/01 08:01:29;;;;;;;2.60;2.00;;;20.00;99.90;;;;;;5077581;28;20402;-73
2023/09/01 08:04:18;;;;;;;2.33;1.50;;;20.40;99.90;;;;;;5076971;28;20230;-72
2023/09/01 08:07:07;;;;;;;3.20;1.67;;;20.20;99.90;;;;;;5078250;28;20227;-73
2023/09/01 08:09:56;;;;;;;4.18;1.80;;;20.00;99.90;;;;;;5058551;28;20223;-73
2023/09/01 08:12:46;;;;;;;4.53;1.45;;;20.30;99.90;;;;;;5081880;28;20313;-73
2023/09/01 08:15:35;;;;;;;1.95;1.42;;;21.00;99.90;;;;;;5100299;28;20218;-73
2023/09/01 08:18:25;;;;;;;3.13;1.40;;;21.20;99.90;;;;;;5079472;28;20571;-73
2023/09/01 08:21:14;;;;;;;2.53;1.40;;;21.20;99.90;;;;;;5090366;27;20222;-72
2023/09/01 08:24:03;;;;;;;3.97;1.70;;;21.50;99.90;;;;;;5102023;28;20227;-70
2023/09/01 08:26:52;;;;;;;2.17;1.60;;;21.70;99.90;;;;;;5075254;28;20598;-70
2023/09/01 08:29:45;;;;;;;3.58;1.55;;;21.90;99.90;;;;;;5078930;28;20257;-72
2023/09/01 08:32:34;;;;;;;4.07;1.63;;;22.10;99.90;;;;;;5072499;28;20672;-73
2023/09/01 08:35:23;;;;;;;2.20;1.40;;;22.40;99.90;;;;;;5071346;28;20220;-72
2023/09/01 08:38:12;;;;;;;2.70;1.40;;;23.00;99.90;;;;;;5084629;28;20286;-72
2023/09/01 08:41:04;;;;;;;3.47;1.30;;;23.40;99.90;;;;;;5084763;28;20322;-73
2023/09/01 08:43:58;;;;;;;2.95;1.33;;;23.60;99.90;;;;;;5096284;28;20237;-73
2023/09/01 08:46:49;;;;;;;2.70;1.50;;;23.70;99.90;;;;;;5092916;28;20226;-73
2023/09/01 08:49:39;;;;;;;1.85;1.35;;;24.20;99.90;;;;;;5075625;28;21185;-73
2023/09/01 08:52:29;;;;;;;3.28;1.38;;;22.90;92.40;;;;;;5083213;28;20266;-73
2023/09/01 08:55:19;;;;;;;3.40;1.35;;;23.20;94.50;;;;;;5080303;28;20321;-73
2023/09/01 08:58:09;;;;;;;3.38;1.65;;;24.00;88.20;;;;;;5092703;28;20309;-74
2023/09/01 09:00:58;;;;;;;3.22;1.30;;;24.70;90.10;;;;;;5085626;28;20214;-72
2023/09/01 09:03:48;;;;;;;2.35;1.40;;;25.10;39.70;;;;;;5069604;28;20227;-73
2023/09/01 09:06:39;;;;;;;3.65;1.52;;;24.90;35.50;;;;;;5071204;28;20572;-73
2023/09/01 09:09:30;;;;;;;3.47;1.50;;;25.50;69.80;;;;;;5070526;28;20239;-73
2023/09/01 09:12:21;;;;;;;2.05;1.42;;;26.00;68.50;;;;;;5074009;28;20227;-75
2023/09/01 09:15:16;;;;;;;4.38;1.50;;;25.60;1.00;;;;;;5096246;27;20780;-73
2023/09/01 09:18:06;;;;;;;4.18;1.90;;;25.80;1.80;;;;;;5083577;28;20384;-72
2023/09/01 09:20:56;;;;;;;1.80;1.58;;;24.60;1.00;;;;;;5103207;28;20234;-73
2023/09/01 09:23:46;;;;;;;4.10;1.40;;;23.40;1.00;;;;;;5093389;28;20223;-72
2023/09/01 09:26:35;;;;;;;5.05;2.42;;;23.30;58.60;;;;;;5099500;28;20292;-73
2023/09/01 09:29:24;;;;;;;1.80;1.30;;;23.10;52.50;;;;;;5083495;28;20474;-74
2023/09/01 09:32:18;;;;;;;1.75;1.40;;;22.90;56.20;;;;;;5074130;28;20743;-73
2023/09/01 09:35:10;;;;;;;3.47;1.50;;;22.60;78.80;;;;;;5077816;28;20659;-73
2023/09/01 09:38:02;;;;;;;3.28;1.63;;;22.60;97.80;;;;;;5081974;28;20226;-72
2023/09/01 09:40:58;;;;;;;4.70;1.40;;;22.20;93.60;;;;;;5096471;28;20237;-73
2023/09/01 09:43:49;;;;;;;4.50;1.58;;;22.10;91.30;;;;;;5057978;28;20243;-72
2023/09/01 09:46:44;;;;;;;2.22;1.40;;;21.90;95.90;;;;;;5074231;28;20243;-74
2023/09/01 09:49:33;;;;;;;8.55;3.20;;;21.80;99.90;;;;;;5073360;28;20215;-73
2023/09/01 09:52:23;;;;;;;2.20;1.70;;;22.30;99.90;;;;;;5064524;28;20223;-73
2023/09/01 09:55:17;;;;;;;3.03;1.65;;;23.30;99.90;;;;;;5089433;28;20227;-72
2023/09/01 09:58:07;;;;;;;3.65;1.45;;;24.20;56.10;;;;;;5097391;28;20215;-74
2023/09/01 10:01:02;;;;;;;3.03;1.50;;;24.80;1.00;;;;;;5063218;28;20212;-73
2023/09/01 10:03:53;;;;;;;3.05;1.45;;;24.20;1.00;;;;;;5062893;28;20215;-73
2023/09/01 10:06:43;;;;;;;2.17;1.45;;;25.30;1.00;;;;;;5085805;28;20222;-72
2023/09/01 10:09:34;;;;;;;3.45;1.40;;;26.30;1.00;;;;;;5099488;28;20302;-72
2023/09/01 10:12:25;;;;;;;3.28;1.48;;;27.20;1.00;;;;;;5083953;28;20238;-74
2023/09/01 10:15:16;;;;;;;4.10;1.40;;;26.50;99.90;;;;;;5077190;28;20313;-71
2023/09/01 10:18:08;;;;;;;2.97;1.20;;;24.90;1.00;;;;;;5089108;28;20229;-73
2023/09/01 10:20:57;;;;;;;7.78;1.95;;;23.70;1.00;;;;;;5077559;28;20555;-72
2023/09/01 10:23:46;;;;;;;1.50;1.27;;;22.90;1.00;;;;;;5097806;28;20261;-72
2023/09/01 10:26:35;;;;;;;4.80;1.40;;;22.80;1.00;;;;;;5080906;28;20218;-72
2023/09/01 10:29:34;;;;;;;3.00;1.48;;;22.60;61.90;;;;;;5083136;28;20233;-72
2023/09/01 10:32:28;;;;;;;3.60;1.40;;;22.20;75.70;;;;;;5084876;28;20714;-72
2023/09/01 10:35:39;;;;;;;4.07;1.40;;;22.40;83.30;;;;;;5084708;28;20229;-73
2023/09/01 10:38:37;;;;;;;2.90;1.60;;;22.60;99.90;;;;;;5099558;28;20285;-73
2023/09/01 10:41:51;;;;;;;5.07;1.48;;;22.70;91.70;;;;;;5085970;28;20218;-72
2023/09/01 10:45:14;;;;;;;2.00;1.20;;;22.70;92.20;;;;;;5083274;28;20597;-73
2023/09/01 10:48:04;;;;;;;3.13;1.55;;;22.40;70.30;;;;;;5093483;28;20974;-74
2023/09/01 10:51:15;;;;;;;2.72;1.35;;;22.00;63.90;;;;;;5096695;28;20386;-72
2023/09/01 10:54:40;;;;;;;2.40;1.40;;;22.10;99.90;;;;;;5072136;28;20238;-74
2023/09/01 10:57:39;;;;;;;4.85;1.55;;;22.30;83.50;;;;;;5079759;28;20582;-71
2023/09/01 11:00:31;;;;;;;3.38;1.60;;;22.30;97.90;;;;;;5088267;28;20219;-73
2023/09/01 11:03:29;;;;;;;2.53;1.50;;;22.40;95.20;;;;;;5081409;28;20309;-73
2023/09/01 11:06:20;;;;;;;3.78;1.23;;;22.60;99.90;;;;;;5093683;28;20352;-72
2023/09/01 11:09:09;;;;;;;2.53;1.42;;;22.10;70.00;;;;;;5078052;28;20226;-71
2023/09/01 11:11:59;;;;;;;3.22;1.60;;;22.10;51.30;;;;;;5095369;28;20230;-72
2023/09/01 11:14:56;;;;;;;2.42;1.27;;;22.10;85.00;;;;;;5063178;28;20231;-71
2023/09/01 11:17:49;;;;;;;2.15;1.20;;;22.40;51.60;;;;;;5060027;28;20648;-70
2023/09/01 11:20:38;;;;;;;2.00;1.25;;;22.30;94.60;;;;;;5088413;28;20239;-72
2023/09/01 11:23:28;;;;;;;2.42;1.50;;;22.20;99.90;;;;;;5093333;28;20234;-73
2023/09/01 11:26:18;;;;;;;2.72;1.30;;;22.20;99.90;;;;;;5085340;28;20234;-73
2023/09/01 11:29:09;;;;;;;4.13;1.55;;;22.30;98.90;;;;;;5092835;28;20378;-72
2023/09/01 11:31:58;;;;;;;3.13;1.30;;;22.40;78.00;;;;;;5076857;28;20977;-73
2023/09/01 11:34:50;;;;;;;5.93;1.50;;;22.40;47.80;;;;;;5104468;28;20732;-72
2023/09/01 11:37:41;;;;;;;3.40;1.58;;;22.50;66.70;;;;;;5096218;28;20230;-71
2023/09/01 11:40:33;;;;;;;2.55;1.45;;;22.60;93.10;;;;;;5089255;28;20222;-73
2023/09/01 11:43:23;;;;;;;3.97;1.40;;;22.60;99.90;;;;;;5072065;28;20249;-72
2023/09/01 11:46:13;;;;;;;10.10;1.90;;;22.90;99.90;;;;;;5100828;28;20222;-72
2023/09/01 11:49:04;;;;;;;3.33;1.20;;;23.00;59.10;;;;;;5086547;28;20321;-72
2023/09/01 11:51:55;;;;;;;2.30;1.20;;;22.60;1.00;;;;;;5085265;28;20378;-72
2023/09/01 11:54:45;;;;;;;3.17;1.50;;;22.40;2.50;;;;;;5086919;28;20272;-72
2023/09/01 11:57:34;;;;;;;3.15;1.30;;;22.30;10.10;;;;;;5075365;28;20230;-73
2023/09/01 12:00:31;;;;;;;1.80;1.30;;;22.40;25.90;;;;;;5103249;28;20261;-73
2023/09/01 12:03:24;;;;;;;3.25;1.50;;;22.10;5.00;;;;;;5093934;28;20211;-73
2023/09/01 12:06:20;;;;;;;5.53;1.50;;;22.00;23.60;;;;;;5089296;28;20218;-71
2023/09/01 12:09:18;;;;;;;2.63;1.40;;;22.10;58.50;;;;;;5100876;28;20211;-73
2023/09/01 12:12:08;;;;;;;4.60;1.52;;;22.20;95.40;;;;;;5080519;28;20223;-71
2023/09/01 12:15:04;;;;;;;3.00;1.70;;;22.20;93.10;;;;;;5101030;28;20302;-73
2023/09/01 12:17:53;;;;;;;2.70;1.35;;;22.20;75.10;;;;;;5083553;28;20311;-74
2023/09/01 12:20:43;;;;;;;2.35;1.40;;;22.60;94.60;;;;;;5078780;28;20907;-72
2023/09/01 12:23:33;;;;;;;7.20;1.88;;;22.40;89.90;;;;;;5102762;28;20682;-71
2023/09/01 12:26:23;;;;;;;1.83;1.40;;;22.40;96.10;;;;;;5095446;28;20223;-70
2023/09/01 12:29:12;;;;;;;2.28;1.50;;;22.60;49.60;;;;;;5077464;28;20223;-71
2023/09/01 12:32:02;;;;;;;2.00;1.50;;;22.70;26.80;;;;;;5079680;28;20223;-71
2023/09/01 12:34:51;;;;;;;1.83;1.38;;;22.50;59.40;;;;;;5072092;28;20713;-71
2023/09/01 12:37:43;;;;;;;3.15;1.80;;;22.40;53.60;;;;;;5055735;28;20236;-71
2023/09/01 12:40:32;;;;;;;2.47;1.65;;;22.40;47.60;;;;;;5062856;28;20393;-72
2023/09/01 12:43:22;;;;;;;5.65;2.10;;;22.40;56.80;;;;;;5081009;28;20292;-72
2023/09/01 12:46:11;;;;;;;4.97;1.80;;;22.40;90.00;;;;;;5080861;28;20702;-71
2023/09/01 12:49:00;;;;;;;3.28;2.75;;;22.50;76.20;;;;;;5094550;28;20214;-71
2023/09/01 12:51:50;;;;;;;1.52;1.20;;;22.40;84.20;;;;;;5078395;28;20224;-71
2023/09/01 12:54:39;;;;;;;2.35;1.50;;;22.40;41.60;;;;;;5087439;28;20277;-72
2023/09/01 12:57:28;;;;;;;4.32;1.85;;;22.20;18.10;;;;;;5074648;28;20235;-71
2023/09/01 13:00:20;;;;;;;2.65;1.70;;;22.30;26.00;;;;;;5084247;28;20553;-72
2023/09/01 13:03:09;;;;;;;3.90;1.42;;;22.40;34.30;;;;;;5099489;28;20257;-71
2023/09/01 13:05:59;;;;;;;2.83;1.60;;;22.40;51.70;;;;;;5104753;28;20282;-70
2023/09/01 13:08:48;;;;;;;3.03;1.60;;;22.40;61.40;;;;;;5074285;28;20210;-71
2023/09/01 13:11:38;;;;;;;3.95;1.63;;;22.40;69.90;;;;;;5076760;28;20223;-72
2023/09/01 13:14:27;;;;;;;5.35;1.77;;;22.30;38.40;;;;;;5100839;28;20220;-69
2023/09/01 13:17:17;;;;;;;3.67;1.70;;;22.30;37.90;;;;;;5085827;28;20589;-70
2023/09/01 13:20:07;;;;;;;3.97;1.60;;;22.20;30.70;;;;;;5097752;28;20216;-69
2023/09/01 13:22:57;;;;;;;5.93;1.98;;;22.30;25.00;;;;;;5089001;28;20627;-69
2023/09/01 13:25:46;;;;;;;5.53;1.70;;;22.30;34.70;;;;;;5098732;28;20246;-71
2023/09/01 13:28:35;;;;;;;3.78;2.35;;;22.30;8.80;;;;;;5101437;28;20235;-70
2023/09/01 13:31:24;;;;;;;4.53;1.63;;;22.40;45.60;;;;;;5087904;28;20230;-72
2023/09/01 13:34:14;;;;;;;2.63;1.73;;;22.40;72.30;;;;;;5084615;28;20219;-72
2023/09/01 13:37:03;;;;;;;2.97;1.70;;;22.30;36.20;;;;;;5087022;28;20295;-71
2023/09/01 13:39:55;;;;;;;2.35;1.58;;;22.20;30.90;;;;;;5076530;28;20237;-71
2023/09/01 13:42:47;;;;;;;1.90;1.70;;;22.30;28.40;;;;;;5064920;28;20368;-69
2023/09/01 13:45:35;;;;;;;3.80;1.77;;;22.30;48.20;;;;;;5100901;28;20234;-72
2023/09/01 13:48:24;;;;;;;2.35;1.42;;;22.20;82.30;;;;;;5080594;28;20227;-72
2023/09/01 13:51:17;;;;;;;2.53;1.50;;;22.20;90.70;;;;;;5079952;28;20755;-71
2023/09/01 13:54:07;;;;;;;2.90;1.70;;;22.10;58.40;;;;;;5079064;28;20233;-73
2023/09/01 13:56:56;;;;;;;4.82;1.80;;;22.00;56.70;;;;;;5081617;28;20698;-73
2023/09/01 13:59:45;;;;;;;5.93;1.60;;;21.90;39.50;;;;;;5094927;28;20223;-73
2023/09/01 14:02:34;;;;;;;2.17;1.73;;;21.90;56.10;;;;;;5081757;28;20239;-73
2023/09/01 14:05:23;;;;;;;4.30;1.77;;;21.80;76.80;;;;;;5086004;28;20223;-73
2023/09/01 14:08:14;;;;;;;3.75;1.60;;;21.80;77.00;;;;;;5101391;28;20219;-74
2023/09/01 14:11:04;;;;;;;2.47;1.80;;;21.80;63.50;;;;;;5075328;28;20223;-72
2023/09/01 14:13:53;;;;;;;4.85;1.90;;;21.80;66.00;;;;;;5075419;28;20264;-73
2023/09/01 14:16:42;;;;;;;4.47;1.75;;;21.60;65.60;;;;;;5098532;27;20249;-72
2023/09/01 14:19:31;;;;;;;4.05;1.80;;;21.60;71.60;;;;;;5095109;28;20234;-72
2023/09/01 14:22:20;;;;;;;4.65;1.63;;;21.70;89.50;;;;;;5092508;28;20214;-73
2023/09/01 14:25:11;;;;;;;4.38;1.77;;;21.50;65.10;;;;;;5081866;28;20376;-73
2023/09/01 14:28:00;;;;;;;4.03;1.90;;;21.50;92.80;;;;;;5085123;28;20277;-74
2023/09/01 14:30:50;;;;;;;3.65;1.80;;;21.60;98.90;;;;;;5085247;28;20673;-73
2023/09/01 14:33:40;;;;;;;3.40;1.95;;;21.70;90.80;;;;;;5081483;28;20575;-72
2023/09/01 14:36:36;;;;;;;2.92;2.30;;;21.60;91.10;;;;;;5085901;28;20230;-72
2023/09/01 14:39:25;;;;;;;3.03;1.70;;;21.70;89.00;;;;;;5098384;28;20231;-71
2023/09/01 14:42:17;;;;;;;3.70;1.75;;;21.60;75.40;;;;;;5080441;28;20351;-73
2023/09/01 14:45:08;;;;;;;2.38;1.92;;;21.70;99.90;;;;;;5083118;28;20701;-73
2023/09/01 14:47:57;;;;;;;3.38;1.85;;;21.70;99.90;;;;;;5081509;28;20220;-73
2023/09/01 14:50:46;;;;;;;17.00;2.42;;;21.70;99.90;;;;;;5096240;28;20719;-72